createdAt,value
2019-02-24T00:01:53.330Z,74.36
2019-02-24T00:04:22.621Z,74.33
2019-02-24T00:06:51.987Z,73.99
2019-02-24T00:09:21.318Z,74.17
2019-02-24T00:11:50.637Z,74.10
2019-02-24T00:14:20.000Z,74.51
2019-02-24T00:16:49.292Z,74.56
2019-02-24T00:19:18.639Z,74.11
2019-02-24T00:21:47.989Z,74.14
2019-02-24T00:24:17.305Z,74.37
2019-02-24T00:26:46.668Z,74.70
2019-02-24T00:29:16.009Z,74.85
2019-02-24T00:31:45.299Z,74.88
2019-02-24T00:34:14.639Z,75.09
2019-02-24T00:36:44.047Z,75.12
2019-02-24T00:39:13.347Z,75.36
2019-02-24T00:41:42.717Z,75.28
2019-02-24T00:44:12.096Z,75.33
2019-02-24T00:46:41.393Z,75.42
2019-02-24T00:49:10.755Z,75.55
2019-02-24T00:51:40.187Z,74.68
2019-02-24T00:54:09.479Z,74.87
2019-02-24T00:56:38.732Z,74.88
2019-02-24T00:59:08.228Z,74.91
2019-02-24T01:01:37.491Z,75.08
2019-02-24T01:04:06.803Z,75.37
2019-02-24T01:06:36.239Z,75.42
2019-02-24T01:09:06.542Z,75.58
2019-02-24T01:11:35.846Z,75.43
2019-02-24T01:14:05.211Z,75.52
2019-02-24T01:16:34.587Z,76.63
2019-02-24T01:19:03.898Z,76.74
2019-02-24T01:21:33.283Z,75.73
2019-02-24T01:24:02.568Z,75.22
2019-02-24T01:26:31.922Z,74.93
2019-02-24T01:29:01.269Z,74.71
2019-02-24T01:31:30.572Z,74.56
2019-02-24T01:33:59.958Z,74.24
2019-02-24T01:36:29.419Z,73.83
2019-02-24T01:38:58.717Z,73.95
2019-02-24T01:41:28.001Z,73.98
2019-02-24T01:43:57.469Z,74.07
2019-02-24T01:46:26.792Z,74.18
2019-02-24T01:48:56.063Z,74.40
2019-02-24T01:51:25.517Z,74.58
2019-02-24T01:53:54.893Z,75.11
2019-02-24T01:56:24.165Z,75.69
2019-02-24T01:58:53.533Z,76.58
2019-02-24T02:01:22.873Z,76.77
2019-02-24T02:03:52.150Z,76.81
2019-02-24T02:06:21.737Z,76.73
2019-02-24T02:08:51.081Z,76.69
2019-02-24T02:11:20.390Z,76.72
2019-02-24T02:13:49.935Z,76.73
2019-02-24T02:16:19.242Z,76.57
2019-02-24T02:18:48.572Z,76.02
2019-02-24T02:21:18.059Z,76.01
2019-02-24T02:23:47.353Z,75.70
2019-02-24T02:26:16.727Z,75.31
2019-02-24T02:28:46.248Z,75.17
2019-02-24T02:31:15.545Z,75.04
2019-02-24T02:33:44.830Z,75.28
2019-02-24T02:36:14.255Z,75.39
2019-02-24T02:38:43.548Z,75.40
2019-02-24T02:41:12.841Z,75.83
2019-02-24T02:43:42.312Z,75.84
2019-02-24T02:46:11.684Z,76.54
2019-02-24T02:48:41.102Z,76.83
2019-02-24T02:51:10.952Z,77.09
2019-02-24T02:53:40.314Z,77.48
2019-02-24T02:56:09.655Z,77.96
2019-02-24T02:58:39.009Z,77.30
2019-02-24T03:01:08.390Z,75.96
2019-02-24T03:03:37.678Z,75.30
2019-02-24T03:06:13.493Z,75.21
2019-02-24T03:08:46.512Z,74.64
2019-02-24T03:11:16.443Z,74.75
2019-02-24T03:13:45.730Z,76.06
2019-02-24T03:16:16.657Z,76.42
2019-02-24T03:18:46.170Z,77.02
2019-02-24T03:21:16.390Z,77.49
2019-02-24T03:23:45.763Z,77.99
2019-02-24T03:26:15.300Z,77.97
2019-02-24T03:28:44.575Z,78.45
2019-02-24T03:31:13.820Z,78.95
2019-02-24T03:33:44.864Z,79.46
2019-02-24T03:36:14.528Z,79.64
2019-02-24T03:38:43.977Z,78.60
2019-02-24T03:41:13.275Z,79.43
2019-02-24T03:43:42.580Z,80.43
2019-02-24T03:46:11.937Z,80.18
2019-02-24T03:48:41.241Z,80.73
2019-02-24T03:51:10.552Z,81.25
2019-02-24T03:53:40.369Z,81.84
2019-02-24T03:56:09.782Z,82.53
2019-02-24T03:58:39.056Z,83.08
2019-02-24T04:01:08.510Z,83.23
2019-02-24T04:03:37.796Z,83.33
2019-02-24T04:06:07.156Z,83.58
2019-02-24T04:08:36.798Z,83.78
2019-02-24T04:11:06.192Z,83.98
2019-02-24T04:13:35.502Z,84.05
2019-02-24T04:16:04.924Z,84.05
2019-02-24T04:18:34.252Z,84.10
2019-02-24T04:21:03.556Z,84.47
2019-02-24T04:23:33.170Z,84.51
2019-02-24T04:26:02.548Z,84.59
2019-02-24T04:28:31.861Z,84.66
2019-02-24T04:31:01.303Z,84.83
2019-02-24T04:33:30.621Z,84.97
2019-02-24T04:35:59.916Z,85.42
2019-02-24T04:38:29.419Z,85.96
2019-02-24T04:40:58.712Z,86.48
2019-02-24T04:43:27.999Z,86.29
2019-02-24T04:45:57.455Z,85.55
2019-02-24T04:48:26.827Z,85.52
2019-02-24T04:50:56.263Z,85.65
2019-02-24T04:53:25.768Z,86.09
2019-02-24T04:55:55.055Z,86.16
2019-02-24T04:58:24.355Z,85.66
2019-02-24T05:00:53.797Z,85.36
2019-02-24T05:03:23.092Z,85.06
2019-02-24T05:05:52.362Z,84.45
2019-02-24T05:08:21.885Z,83.99
2019-02-24T05:10:51.188Z,84.28
2019-02-24T05:13:20.444Z,84.62
2019-02-24T05:15:49.829Z,85.10
2019-02-24T05:18:19.237Z,85.57
2019-02-24T05:20:48.590Z,85.64
2019-02-24T05:23:17.993Z,85.66
2019-02-24T05:25:47.349Z,85.66
2019-02-24T05:28:16.592Z,85.45
2019-02-24T05:30:45.985Z,85.28
2019-02-24T05:33:15.319Z,84.97
2019-02-24T05:35:44.665Z,84.70
2019-02-24T05:38:14.047Z,84.43
2019-02-24T05:40:43.458Z,84.22
2019-02-24T05:43:12.837Z,83.98
2019-02-24T05:45:42.257Z,83.79
2019-02-24T05:48:11.593Z,83.59
2019-02-24T05:50:41.017Z,83.70
2019-02-24T05:53:10.302Z,83.58
2019-02-24T05:55:39.641Z,83.97
2019-02-24T05:58:09.012Z,84.09
2019-02-24T06:00:38.514Z,84.48
2019-02-24T06:03:07.877Z,84.75
2019-02-24T06:05:37.222Z,84.94
2019-02-24T06:08:06.866Z,85.02
2019-02-24T06:10:36.258Z,85.43
2019-02-24T06:13:05.571Z,85.75
2019-02-24T06:15:34.987Z,86.08
2019-02-24T06:18:04.335Z,86.39
2019-02-24T06:20:33.622Z,86.84
2019-02-24T06:23:02.995Z,86.11
2019-02-24T06:25:32.379Z,84.85
2019-02-24T06:28:01.715Z,83.27
2019-02-24T06:30:31.037Z,81.37
2019-02-24T06:33:00.415Z,80.26
2019-02-24T06:35:29.712Z,79.50
2019-02-24T06:37:59.263Z,78.55
2019-02-24T06:40:28.531Z,77.60
2019-02-24T06:42:57.845Z,76.46
2019-02-24T06:45:27.245Z,74.11
2019-02-24T06:47:56.552Z,70.09
2019-02-24T06:50:35.085Z,66.35
2019-02-24T06:52:58.962Z,62.24
2019-02-24T06:55:28.396Z,60.20
2019-02-24T06:57:57.732Z,58.25
2019-02-24T07:00:27.217Z,57.66
2019-02-24T07:02:56.567Z,58.42
2019-02-24T07:05:25.982Z,60.77
2019-02-24T07:07:55.667Z,62.10
2019-02-24T07:10:25.059Z,62.29
2019-02-24T07:12:54.374Z,62.88
2019-02-24T07:15:23.819Z,63.98
2019-02-24T07:17:53.255Z,63.13
2019-02-24T07:20:22.530Z,64.12
2019-02-24T07:22:52.050Z,64.37
2019-02-24T07:25:21.410Z,64.10
2019-02-24T07:27:50.711Z,64.24
2019-02-24T07:30:23.522Z,64.89
2019-02-24T07:32:51.250Z,64.72
2019-02-24T07:35:20.539Z,65.85
2019-02-24T07:37:50.021Z,65.04
2019-02-24T07:40:19.413Z,64.65
2019-02-24T07:42:48.727Z,64.99
2019-02-24T07:45:18.076Z,64.92
2019-02-24T07:47:47.356Z,64.05
2019-02-24T07:50:16.671Z,62.83
2019-02-24T07:52:46.163Z,62.28
2019-02-24T07:55:15.523Z,60.95
2019-02-24T07:57:44.823Z,60.28
2019-02-24T08:00:14.415Z,58.06
2019-02-24T08:02:43.759Z,57.72
2019-02-24T08:05:12.983Z,55.58
2019-02-24T08:07:42.433Z,55.37
2019-02-24T08:10:11.950Z,53.96
2019-02-24T08:12:41.225Z,53.24
2019-02-24T08:15:10.640Z,51.65
2019-02-24T08:17:40.106Z,53.12
2019-02-24T08:20:09.671Z,52.54
2019-02-24T08:22:39.027Z,53.71
2019-02-24T08:25:08.468Z,55.25
2019-02-24T08:27:37.737Z,55.36
2019-02-24T08:30:07.862Z,56.99
2019-02-24T08:32:37.272Z,57.61
2019-02-24T08:35:07.236Z,58.41
2019-02-24T08:37:36.580Z,58.18
2019-02-24T08:40:06.565Z,57.83
2019-02-24T08:42:35.860Z,58.79
2019-02-24T08:45:05.504Z,58.40
2019-02-24T08:47:35.012Z,59.40
2019-02-24T08:50:04.529Z,59.23
2019-02-24T08:52:33.772Z,59.63
2019-02-24T08:55:03.213Z,58.02
2019-02-24T08:57:32.583Z,57.46
2019-02-24T09:00:01.936Z,57.65
2019-02-24T09:02:31.406Z,57.86
2019-02-24T09:05:00.731Z,57.99
2019-02-24T09:07:30.134Z,56.49
2019-02-24T09:09:59.625Z,56.55
2019-02-24T09:12:28.926Z,56.23
2019-02-24T09:14:58.242Z,56.77
2019-02-24T09:17:27.597Z,55.36
2019-02-24T09:19:56.900Z,53.71
2019-02-24T09:22:26.253Z,55.14
2019-02-24T09:24:56.241Z,54.48
2019-02-24T09:27:25.542Z,54.35
2019-02-24T09:29:54.865Z,54.43
2019-02-24T09:32:24.398Z,53.69
2019-02-24T09:34:53.695Z,53.80
2019-02-24T09:37:22.926Z,53.87
2019-02-24T09:39:52.483Z,53.42
2019-02-24T09:42:21.740Z,53.01
2019-02-24T09:44:51.061Z,53.27
2019-02-24T09:47:20.639Z,53.54
2019-02-24T09:49:49.982Z,54.25
2019-02-24T09:52:19.294Z,52.88
2019-02-24T09:54:48.714Z,53.00
2019-02-24T09:57:17.969Z,52.16
2019-02-24T09:59:47.297Z,52.97
2019-02-24T10:02:16.753Z,52.55
2019-02-24T10:04:46.076Z,52.63
2019-02-24T10:07:15.401Z,52.02
2019-02-24T10:09:44.818Z,51.29
2019-02-24T10:12:14.149Z,51.67
2019-02-24T10:14:43.451Z,50.28
2019-02-24T10:17:12.722Z,50.92
2019-02-24T10:19:42.042Z,49.50
2019-02-24T10:22:11.419Z,43.66
2019-02-24T10:24:40.891Z,37.46
2019-02-24T10:27:10.178Z,32.99
2019-02-24T10:29:39.462Z,31.63
2019-02-24T10:32:08.999Z,29.12
2019-02-24T10:34:38.363Z,27.35
2019-02-24T10:37:07.727Z,29.35
2019-02-24T10:39:37.246Z,33.19
2019-02-24T10:42:06.522Z,38.31
2019-02-24T10:44:35.795Z,40.37
2019-02-24T10:47:05.203Z,42.35
2019-02-24T10:49:34.511Z,43.10
2019-02-24T10:52:03.757Z,44.44
2019-02-24T10:54:33.266Z,42.52
2019-02-24T10:57:02.671Z,37.64
2019-02-24T10:59:31.991Z,31.92
2019-02-24T11:02:01.912Z,28.00
2019-02-24T11:04:31.203Z,29.45
2019-02-24T11:07:00.462Z,26.88
2019-02-24T11:09:29.836Z,24.98
2019-02-24T11:11:59.150Z,24.40
2019-02-24T11:14:28.538Z,23.81
2019-02-24T11:16:57.966Z,24.57
2019-02-24T11:19:27.317Z,24.76
2019-02-24T11:21:56.618Z,22.51
2019-02-24T11:24:26.117Z,22.65
2019-02-24T11:26:55.390Z,22.44
2019-02-24T11:29:24.631Z,23.38
2019-02-24T11:31:54.189Z,22.29
2019-02-24T11:34:23.547Z,22.29
2019-02-24T11:36:52.838Z,22.93
2019-02-24T11:39:22.216Z,22.88
2019-02-24T11:41:51.534Z,22.88
2019-02-24T11:44:20.886Z,24.05
2019-02-24T11:46:50.272Z,23.02
2019-02-24T11:49:19.593Z,22.82
2019-02-24T11:51:48.956Z,30.26
2019-02-24T11:54:18.341Z,30.26
2019-02-24T11:56:47.610Z,35.24
2019-02-24T11:59:16.896Z,37.35
2019-02-24T12:01:47.757Z,37.62
2019-02-24T12:04:17.283Z,38.83
2019-02-24T12:06:46.632Z,38.59
2019-02-24T12:09:16.153Z,40.46
2019-02-24T12:11:45.539Z,36.44
2019-02-24T12:14:14.794Z,38.52
2019-02-24T12:16:44.183Z,38.60
2019-02-24T12:19:13.439Z,37.27
2019-02-24T12:21:42.759Z,37.39
2019-02-24T12:24:12.242Z,39.68
2019-02-24T12:26:41.574Z,40.19
2019-02-24T12:29:10.984Z,38.11
2019-02-24T12:31:40.427Z,37.63
2019-02-24T12:34:09.768Z,39.07
2019-02-24T12:36:39.043Z,40.67
2019-02-24T12:39:08.604Z,39.93
2019-02-24T12:41:37.876Z,38.44
2019-02-24T12:44:07.202Z,37.53
2019-02-24T12:46:36.685Z,37.45
2019-02-24T12:49:06.012Z,39.40
2019-02-24T12:51:35.314Z,38.20
2019-02-24T12:54:04.865Z,42.18
2019-02-24T12:56:34.169Z,40.74
2019-02-24T12:59:03.534Z,42.04
2019-02-24T13:01:32.996Z,41.62
2019-02-24T13:04:02.309Z,42.60
2019-02-24T13:06:31.631Z,41.40
2019-02-24T13:09:01.108Z,41.58
2019-02-24T13:11:30.387Z,42.65
2019-02-24T13:13:59.703Z,42.28
2019-02-24T13:16:29.246Z,43.40
2019-02-24T13:18:58.574Z,43.83
2019-02-24T13:21:27.895Z,45.13
2019-02-24T13:23:57.271Z,44.00
2019-02-24T13:26:26.552Z,44.86
2019-02-24T13:28:55.869Z,44.34
2019-02-24T13:31:25.237Z,44.89
2019-02-24T13:33:54.576Z,47.12
2019-02-24T13:36:23.927Z,46.08
2019-02-24T13:38:53.457Z,46.28
2019-02-24T13:41:22.759Z,46.22
2019-02-24T13:43:52.040Z,46.39
2019-02-24T13:46:21.353Z,47.20
2019-02-24T13:48:50.666Z,47.84
2019-02-24T13:51:20.003Z,48.41
2019-02-24T13:53:49.386Z,48.84
2019-02-24T13:56:18.726Z,48.13
2019-02-24T13:58:48.090Z,48.52
2019-02-24T14:01:17.496Z,48.69
2019-02-24T14:03:46.764Z,49.66
2019-02-24T14:06:16.076Z,50.22
2019-02-24T14:08:45.571Z,49.62
2019-02-24T14:11:14.855Z,49.78
2019-02-24T14:13:44.188Z,51.70
2019-02-24T14:16:13.684Z,51.18
2019-02-24T14:18:42.975Z,51.22
2019-02-24T14:21:12.302Z,52.85
2019-02-24T14:23:41.778Z,54.06
2019-02-24T14:26:11.387Z,53.97
2019-02-24T14:28:40.733Z,54.90
2019-02-24T14:31:10.058Z,54.82
2019-02-24T14:33:39.610Z,53.50
2019-02-24T14:36:08.926Z,53.55
2019-02-24T14:38:38.390Z,57.18
2019-02-24T14:41:08.941Z,54.82
2019-02-24T14:43:38.403Z,56.47
2019-02-24T14:46:07.770Z,57.54
2019-02-24T14:48:37.110Z,57.01
2019-02-24T14:51:06.386Z,58.39
2019-02-24T14:53:35.885Z,59.05
2019-02-24T14:56:05.169Z,59.72
2019-02-24T14:58:34.446Z,60.37
2019-02-24T15:01:04.074Z,60.52
2019-02-24T15:03:33.450Z,62.05
2019-02-24T15:06:02.771Z,62.32
2019-02-24T15:08:32.201Z,63.07
2019-02-24T15:11:01.560Z,63.61
2019-02-24T15:13:30.833Z,63.64
2019-02-24T15:16:00.267Z,64.37
2019-02-24T15:18:29.627Z,64.87
2019-02-24T15:20:58.896Z,64.59
2019-02-24T15:23:28.402Z,65.29
2019-02-24T15:25:57.799Z,65.96
2019-02-24T15:28:27.145Z,66.24
2019-02-24T15:30:56.441Z,66.51
2019-02-24T15:33:25.692Z,66.70
2019-02-24T15:35:54.998Z,66.89
2019-02-24T15:38:24.520Z,67.29
2019-02-24T15:40:53.878Z,67.57
2019-02-24T15:43:23.183Z,67.77
2019-02-24T15:45:52.492Z,68.73
2019-02-24T15:48:21.751Z,68.42
2019-02-24T15:50:51.035Z,68.74
2019-02-24T15:53:20.386Z,69.11
2019-02-24T15:55:49.721Z,69.48
2019-02-24T15:58:19.080Z,70.05
2019-02-24T16:00:48.508Z,70.83
2019-02-24T16:03:17.821Z,71.28
2019-02-24T16:05:47.080Z,71.85
2019-02-24T16:08:16.549Z,72.66
2019-02-24T16:10:45.882Z,73.40
2019-02-24T16:13:17.216Z,73.85
2019-02-24T16:15:46.526Z,74.42
2019-02-24T16:18:15.871Z,74.99
2019-02-24T16:20:45.161Z,75.65
2019-02-24T16:23:14.728Z,76.12
2019-02-24T16:25:44.037Z,76.48
2019-02-24T16:28:13.327Z,77.12
2019-02-24T16:30:42.722Z,77.51
2019-02-24T16:33:12.039Z,77.62
2019-02-24T16:35:41.442Z,77.98
2019-02-24T16:38:10.925Z,78.39
2019-02-24T16:40:40.253Z,78.56
2019-02-24T16:43:09.546Z,78.79
2019-02-24T16:45:38.964Z,79.36
2019-02-24T16:48:08.258Z,79.51
2019-02-24T16:50:37.667Z,79.89
2019-02-24T16:53:07.253Z,80.28
2019-02-24T16:55:36.579Z,80.98
2019-02-24T16:58:05.899Z,81.26
2019-02-24T17:00:35.385Z,81.42
2019-02-24T17:03:04.651Z,81.79
2019-02-24T17:05:34.087Z,81.94
2019-02-24T17:08:03.573Z,82.26
2019-02-24T17:10:32.931Z,82.81
2019-02-24T17:13:02.305Z,83.03
2019-02-24T17:15:31.809Z,83.21
2019-02-24T17:18:01.148Z,83.07
2019-02-24T17:20:30.466Z,83.46
2019-02-24T17:22:59.910Z,84.08
2019-02-24T17:25:29.286Z,84.25
2019-02-24T17:27:58.586Z,84.53
2019-02-24T17:30:28.016Z,84.76
2019-02-24T17:32:57.400Z,85.32
2019-02-24T17:35:26.747Z,85.62
2019-02-24T17:37:56.326Z,86.29
2019-02-24T17:40:25.655Z,86.18
2019-02-24T17:42:54.995Z,86.37
2019-02-24T17:45:24.425Z,86.82
2019-02-24T17:47:53.703Z,86.76
2019-02-24T17:50:23.022Z,86.79
2019-02-24T17:52:52.654Z,86.82
2019-02-24T17:55:21.997Z,86.73
2019-02-24T17:57:51.398Z,86.93
2019-02-24T18:00:26.375Z,86.59
2019-02-24T18:02:55.718Z,86.49
2019-02-24T18:05:25.021Z,86.39
2019-02-24T18:07:54.515Z,86.25
2019-02-24T18:10:23.814Z,86.53
2019-02-24T18:12:53.187Z,86.08
2019-02-24T18:15:22.665Z,85.74
2019-02-24T18:17:51.950Z,85.43
2019-02-24T18:20:21.267Z,85.12
2019-02-24T18:22:50.697Z,84.80
2019-02-24T18:25:20.051Z,84.98
2019-02-24T18:27:49.435Z,85.33
2019-02-24T18:30:21.024Z,85.15
2019-02-24T18:32:50.329Z,85.26
2019-02-24T18:35:19.662Z,85.39
2019-02-24T18:37:49.152Z,85.05
2019-02-24T18:40:18.554Z,85.42
2019-02-24T18:42:47.905Z,85.36
2019-02-24T18:45:17.658Z,85.43
2019-02-24T18:47:47.011Z,85.43
2019-02-24T18:50:16.388Z,85.32
2019-02-24T18:52:45.837Z,85.22
2019-02-24T18:55:15.160Z,85.49
2019-02-24T18:57:44.455Z,85.81
2019-02-24T19:00:15.601Z,86.22
2019-02-24T19:02:44.945Z,86.33
2019-02-24T19:05:14.547Z,86.42
2019-02-24T19:07:44.020Z,86.62
2019-02-24T19:10:14.883Z,86.76
2019-02-24T19:12:44.182Z,86.76
2019-02-24T19:15:15.747Z,86.81
2019-02-24T19:17:45.061Z,87.10
2019-02-24T19:20:15.946Z,86.96
2019-02-24T19:22:45.570Z,86.86
2019-02-24T19:25:14.919Z,86.94
2019-02-24T19:27:44.310Z,86.99
2019-02-24T19:30:14.754Z,87.31
2019-02-24T19:32:44.004Z,87.60
2019-02-24T19:35:13.707Z,87.63
2019-02-24T19:37:43.218Z,87.59
2019-02-24T19:40:13.901Z,87.10
2019-02-24T19:42:43.148Z,86.77
2019-02-24T19:45:13.660Z,86.61
2019-02-24T19:47:42.990Z,86.73
2019-02-24T19:50:14.330Z,86.85
2019-02-24T19:52:43.685Z,86.83
2019-02-24T19:55:13.236Z,86.94
2019-02-24T19:57:42.824Z,87.14
2019-02-24T20:00:17.833Z,87.14
2019-02-24T20:02:47.392Z,87.23
2019-02-24T20:05:16.676Z,86.94
2019-02-24T20:07:45.990Z,86.78
2019-02-24T20:10:17.205Z,87.00
2019-02-24T20:12:46.510Z,86.93
2019-02-24T20:15:15.922Z,86.71
2019-02-24T20:17:45.464Z,86.70
2019-02-24T20:20:14.991Z,86.71
2019-02-24T20:22:44.257Z,86.45
2019-02-24T20:25:13.824Z,86.64
2019-02-24T20:27:43.156Z,86.95
2019-02-24T20:30:15.364Z,86.54
2019-02-24T20:32:44.766Z,86.43
2019-02-24T20:35:14.102Z,86.66
2019-02-24T20:37:43.679Z,86.58
2019-02-24T20:40:13.052Z,86.66
2019-02-24T20:42:42.332Z,86.48
2019-02-24T20:45:12.730Z,86.47
2019-02-24T20:47:41.977Z,86.28
2019-02-24T20:50:12.224Z,86.51
2019-02-24T20:52:41.764Z,86.63
2019-02-24T20:55:11.370Z,86.61
2019-02-24T20:57:40.632Z,86.92
2019-02-24T21:00:16.633Z,86.80
2019-02-24T21:02:45.970Z,86.64
2019-02-24T21:05:15.299Z,86.01
2019-02-24T21:07:44.725Z,85.90
2019-02-24T21:10:14.228Z,86.27
2019-02-24T21:12:43.528Z,86.15
2019-02-24T21:15:13.440Z,86.41
2019-02-24T21:17:42.709Z,86.53
2019-02-24T21:20:14.866Z,86.56
2019-02-24T21:22:44.309Z,86.21
2019-02-24T21:25:13.651Z,85.62
2019-02-24T21:27:43.001Z,85.59
2019-02-24T21:30:14.163Z,86.20
2019-02-24T21:32:43.516Z,86.31
2019-02-24T21:35:12.945Z,86.28
2019-02-24T21:37:42.242Z,85.88
2019-02-24T21:40:12.087Z,85.58
2019-02-24T21:42:41.527Z,86.09
2019-02-24T21:45:13.343Z,86.34
2019-02-24T21:47:42.681Z,86.53
2019-02-24T21:50:12.914Z,86.81
2019-02-24T21:52:42.195Z,86.69
2019-02-24T21:55:11.797Z,86.92
2019-02-24T21:57:41.095Z,87.06
2019-02-24T22:00:16.416Z,87.02
2019-02-24T22:02:45.807Z,87.12
2019-02-24T22:05:15.117Z,87.12
2019-02-24T22:07:44.423Z,86.97
2019-02-24T22:10:13.928Z,86.49
2019-02-24T22:12:43.230Z,86.64
2019-02-24T22:15:14.537Z,86.61
2019-02-24T22:17:43.845Z,86.72
2019-02-24T22:20:15.029Z,87.09
2019-02-24T22:22:44.383Z,87.14
2019-02-24T22:25:13.876Z,87.25
2019-02-24T22:27:43.424Z,87.24
2019-02-24T22:30:14.150Z,87.52
2019-02-24T22:32:43.548Z,87.58
2019-02-24T22:35:12.865Z,87.58
2019-02-24T22:37:42.348Z,87.53
2019-02-24T22:40:12.154Z,87.28
2019-02-24T22:42:41.773Z,87.72
2019-02-24T22:45:12.819Z,87.73
2019-02-24T22:47:43.086Z,87.78
2019-02-24T22:50:12.399Z,87.95
2019-02-24T22:52:41.777Z,88.09
2019-02-24T22:55:11.409Z,87.97
2019-02-24T22:57:40.772Z,87.94
2019-02-24T23:00:33.446Z,87.79
2019-02-24T23:03:02.670Z,87.53
2019-02-24T23:05:31.976Z,87.09
2019-02-24T23:08:01.444Z,87.14
2019-02-24T23:10:30.711Z,86.76
2019-02-24T23:13:00.051Z,86.54
2019-02-24T23:15:29.496Z,86.56
2019-02-24T23:17:58.806Z,86.59
2019-02-24T23:20:28.178Z,86.78
2019-02-24T23:22:57.530Z,86.75
2019-02-24T23:25:26.817Z,86.73
2019-02-24T23:27:56.111Z,87.10
2019-02-24T23:30:25.551Z,86.70
2019-02-24T23:32:54.884Z,86.62
2019-02-24T23:35:24.174Z,86.40
2019-02-24T23:37:53.622Z,85.55
2019-02-24T23:40:22.965Z,85.19
2019-02-24T23:42:52.280Z,85.00
2019-02-24T23:45:21.868Z,84.23
2019-02-24T23:47:51.210Z,84.19
2019-02-24T23:50:20.540Z,83.94
2019-02-24T23:52:49.814Z,84.17
2019-02-24T23:55:19.061Z,83.92
2019-02-24T23:57:48.351Z,84.27
